Time;durP1;ratioP1;P1;durP2;ratioP2;P2;SDS_P1;SDS_P2;PMS_P1;PMS_P2;Temp;Humidity;BMP_temperature;BMP_pressure;BME280_temperature;BME280_humidity;BME280_pressure;Samples;Min_cycle;Max_cycle;Signal;HPM_P1;HPM_P2
2023/09/10 04:01:03;;;;;;;4.80;3.90;;;22.20;76.40;;;;;;5782650;23;20595;-71
2023/09/10 04:03:30;;;;;;;4.87;3.50;;;22.20;76.60;;;;;;4937795;29;20972;-70
2023/09/10 04:05:56;;;;;;;3.40;3.10;;;22.10;76.80;;;;;;4937908;29;20435;-70
2023/09/10 04:08:23;;;;;;;4.10;3.70;;;22.10;76.90;;;;;;4937922;29;20447;-70
2023/09/10 04:10:50;;;;;;;4.97;4.57;;;22.20;76.90;;;;;;4937732;29;20880;-69
2023/09/10 04:13:16;;;;;;;3.57;3.20;;;22.20;77.00;;;;;;4937729;29;20484;-70
2023/09/10 04:15:43;;;;;;;3.83;2.97;;;22.10;77.00;;;;;;4938356;29;20827;-70
2023/09/10 04:18:11;;;;;;;4.33;3.97;;;22.10;77.10;;;;;;4937714;29;20470;-70
2023/09/10 04:20:38;;;;;;;5.60;3.97;;;22.10;77.30;;;;;;4937576;29;20444;-70
2023/09/10 04:23:04;;;;;;;4.50;4.10;;;22.10;77.40;;;;;;4937570;29;20444;-70
2023/09/10 04:25:31;;;;;;;4.30;3.90;;;22.10;77.30;;;;;;4937550;29;20448;-71
2023/09/10 04:27:58;;;;;;;4.57;4.17;;;22.10;77.30;;;;;;4937515;29;20459;-70
2023/09/10 04:30:24;;;;;;;4.43;3.40;;;22.10;77.30;;;;;;4937113;29;20830;-71
2023/09/10 04:32:51;;;;;;;4.20;3.80;;;22.10;77.10;;;;;;4937365;29;20483;-71
2023/09/10 04:35:19;;;;;;;5.27;3.80;;;22.10;77.10;;;;;;4937411;29;20448;-71
2023/09/10 04:37:46;;;;;;;3.90;3.60;;;22.10;77.20;;;;;;4937335;29;20444;-70
2023/09/10 04:40:13;;;;;;;4.33;3.67;;;22.10;77.30;;;;;;4937309;29;20478;-70
2023/09/10 04:42:40;;;;;;;4.90;4.20;;;22.10;77.10;;;;;;4937146;29;20508;-70
2023/09/10 04:45:07;;;;;;;4.13;3.73;;;22.10;77.10;;;;;;4937204;29;20447;-70
2023/09/10 04:47:34;;;;;;;4.00;3.60;;;22.10;77.20;;;;;;4937242;29;20479;-70
2023/09/10 04:50:01;;;;;;;4.00;3.60;;;22.10;77.10;;;;;;4936801;29;20942;-70
2023/09/10 04:52:29;;;;;;;4.93;3.67;;;21.90;77.50;;;;;;4936668;29;20527;-70
2023/09/10 04:54:56;;;;;;;4.00;3.60;;;21.90;77.40;;;;;;4937024;29;20451;-70
2023/09/10 04:57:22;;;;;;;3.70;3.27;;;21.90;77.00;;;;;;4937081;29;20455;-70
2023/09/10 04:59:49;;;;;;;4.60;3.80;;;21.90;77.00;;;;;;4936956;29;20443;-70
2023/09/10 05:02:16;;;;;;;4.77;4.37;;;21.90;76.90;;;;;;4936560;29;20509;-70
2023/09/10 05:04:42;;;;;;;4.40;3.97;;;21.90;76.80;;;;;;4936898;29;20503;-71
2023/09/10 05:07:09;;;;;;;4.63;4.10;;;21.90;76.70;;;;;;4936970;29;20452;-70
2023/09/10 05:09:37;;;;;;;4.77;3.87;;;21.90;76.40;;;;;;4936488;29;20534;-71
2023/09/10 05:12:04;;;;;;;4.30;3.90;;;21.90;76.40;;;;;;4936439;29;20484;-70
2023/09/10 05:14:31;;;;;;;4.63;4.23;;;21.90;76.40;;;;;;4936708;29;20538;-70
2023/09/10 05:16:58;;;;;;;4.13;3.73;;;21.90;76.30;;;;;;4936643;29;20451;-71
2023/09/10 05:19:24;;;;;;;3.83;3.53;;;22.00;76.10;;;;;;4936584;29;20446;-70
2023/09/10 05:21:51;;;;;;;3.73;3.43;;;21.90;76.20;;;;;;4936466;29;20467;-70
2023/09/10 05:24:18;;;;;;;4.27;3.87;;;22.00;76.10;;;;;;4936485;29;20500;-70
2023/09/10 05:26:46;;;;;;;4.10;3.70;;;21.90;76.40;;;;;;4936120;29;20444;-70
2023/09/10 05:29:12;;;;;;;4.57;4.03;;;21.80;76.40;;;;;;4936102;29;20859;-70
2023/09/10 05:31:39;;;;;;;4.20;3.80;;;21.90;76.30;;;;;;4936314;29;20472;-70
2023/09/10 05:34:06;;;;;;;3.30;3.00;;;22.00;75.90;;;;;;4936273;29;20484;-70
2023/09/10 05:36:34;;;;;;;4.30;3.90;;;22.20;75.70;;;;;;4936528;29;20460;-70
2023/09/10 05:39:01;;;;;;;3.77;3.47;;;22.30;75.60;;;;;;4936023;29;21000;-70
2023/09/10 05:41:27;;;;;;;4.87;4.10;;;22.50;75.40;;;;;;4936149;29;20467;-71
2023/09/10 05:43:55;;;;;;;4.07;3.67;;;22.60;75.10;;;;;;4936214;29;20451;-71
2023/09/10 05:46:22;;;;;;;4.30;3.90;;;22.70;74.80;;;;;;4936232;29;20450;-70
2023/09/10 05:48:49;;;;;;;4.30;3.50;;;22.70;74.80;;;;;;4936219;29;20448;-70
2023/09/10 05:51:15;;;;;;;4.23;3.87;;;22.90;74.40;;;;;;4936080;29;20496;-70
2023/09/10 05:53:44;;;;;;;4.80;3.90;;;23.20;74.00;;;;;;4936019;29;20479;-70
2023/09/10 05:56:11;;;;;;;4.47;3.83;;;23.60;73.10;;;;;;4936112;29;20454;-70
2023/09/10 05:58:37;;;;;;;4.07;3.67;;;24.00;71.90;;;;;;4936017;29;20447;-71
2023/09/10 06:01:05;;;;;;;4.30;3.63;;;24.30;71.60;;;;;;4935820;29;20543;-71
2023/09/10 06:03:32;;;;;;;3.47;3.17;;;24.70;70.80;;;;;;4936042;29;20439;-71
2023/09/10 06:06:01;;;;;;;4.33;3.33;;;25.30;69.40;;;;;;4935954;29;20447;-70
2023/09/10 06:08:28;;;;;;;4.10;3.70;;;25.70;68.50;;;;;;4935958;29;20543;-72
2023/09/10 06:10:54;;;;;;;4.10;3.27;;;26.20;67.40;;;;;;4935494;29;21001;-72
2023/09/10 06:13:21;;;;;;;4.17;3.50;;;26.80;66.20;;;;;;4935494;29;20867;-71
2023/09/10 06:15:48;;;;;;;4.50;4.10;;;27.10;65.20;;;;;;4935583;29;20797;-70
2023/09/10 06:18:16;;;;;;;4.03;3.63;;;27.60;64.00;;;;;;4935562;29;20933;-71
2023/09/10 06:20:43;;;;;;;4.13;3.83;;;28.10;63.00;;;;;;4935557;29;20985;-70
2023/09/10 06:23:09;;;;;;;5.87;3.90;;;28.70;61.40;;;;;;4935926;29;20471;-70
2023/09/10 06:25:36;;;;;;;4.20;3.50;;;29.30;60.60;;;;;;4939710;29;20470;-71
2023/09/10 06:28:03;;;;;;;3.20;2.90;;;29.50;59.40;;;;;;4939413;29;20960;-71
2023/09/10 06:30:30;;;;;;;3.70;3.40;;;29.40;59.90;;;;;;4939385;29;21000;-70
2023/09/10 06:32:57;;;;;;;3.97;3.60;;;29.60;59.40;;;;;;4939335;29;20982;-71
2023/09/10 06:35:26;;;;;;;4.10;3.70;;;29.80;59.20;;;;;;4939131;29;20900;-72
2023/09/10 06:37:53;;;;;;;4.30;3.60;;;30.50;58.10;;;;;;4939605;29;20474;-72
2023/09/10 06:40:19;;;;;;;4.30;4.00;;;31.00;57.30;;;;;;4939508;29;20503;-72
2023/09/10 06:42:46;;;;;;;3.30;3.00;;;31.60;56.00;;;;;;4939647;29;20467;-73
2023/09/10 06:45:13;;;;;;;3.70;3.40;;;31.90;55.10;;;;;;4939086;29;20931;-71
2023/09/10 06:47:39;;;;;;;3.93;3.63;;;32.30;54.80;;;;;;4940124;29;20794;-73
2023/09/10 06:50:07;;;;;;;3.80;3.40;;;32.90;53.50;;;;;;4939246;29;20475;-72
2023/09/10 06:52:35;;;;;;;3.30;3.00;;;33.00;53.10;;;;;;4938974;29;20467;-72
2023/09/10 06:55:02;;;;;;;3.80;3.50;;;33.10;53.50;;;;;;4939111;29;20495;-71
2023/09/10 06:57:30;;;;;;;3.53;2.87;;;33.60;52.70;;;;;;4939158;29;20546;-71
2023/09/10 06:59:57;;;;;;;3.60;3.30;;;34.30;52.00;;;;;;4939118;29;20451;-72
2023/09/10 07:02:25;;;;;;;3.67;3.03;;;34.80;50.40;;;;;;4938693;29;20482;-71
2023/09/10 07:04:51;;;;;;;3.57;3.27;;;34.20;51.60;;;;;;4938722;29;20530;-73
2023/09/10 07:07:18;;;;;;;4.90;3.90;;;33.40;53.00;;;;;;4938963;29;20451;-71
2023/09/10 07:09:46;;;;;;;4.10;3.50;;;32.60;54.80;;;;;;4939025;29;20447;-72
2023/09/10 07:12:13;;;;;;;4.00;3.50;;;31.70;56.60;;;;;;4938796;29;20467;-72
2023/09/10 07:14:39;;;;;;;3.67;3.37;;;30.60;58.40;;;;;;4938739;29;20486;-71
2023/09/10 07:17:06;;;;;;;3.70;3.40;;;30.00;60.70;;;;;;4938405;29;20499;-71
2023/09/10 07:19:33;;;;;;;3.83;3.40;;;29.70;61.60;;;;;;4938744;29;20819;-72
2023/09/10 07:21:59;;;;;;;3.97;3.57;;;29.50;62.40;;;;;;4938692;29;20463;-72
2023/09/10 07:24:25;;;;;;;3.70;3.40;;;29.30;62.60;;;;;;4938718;29;20452;-71
2023/09/10 07:26:53;;;;;;;4.10;3.80;;;29.20;63.00;;;;;;4938694;29;20817;-72
2023/09/10 07:29:20;;;;;;;3.93;3.63;;;29.00;63.40;;;;;;4938652;29;20216;-71
2023/09/10 07:31:46;;;;;;;4.33;3.93;;;28.90;63.80;;;;;;4938514;29;20471;-76
2023/09/10 07:34:13;;;;;;;4.63;4.23;;;28.80;64.00;;;;;;4937957;29;20491;-76
2023/09/10 07:36:40;;;;;;;3.87;3.23;;;28.60;64.70;;;;;;4938416;29;20450;-76
2023/09/10 07:39:07;;;;;;;3.90;3.60;;;28.30;66.20;;;;;;4938422;29;20860;-76
2023/09/10 07:41:34;;;;;;;3.63;3.33;;;28.10;66.20;;;;;;4937985;29;20977;-76
2023/09/10 07:44:02;;;;;;;4.50;3.53;;;28.10;66.60;;;;;;4938357;29;20467;-76
2023/09/10 07:46:29;;;;;;;4.07;3.77;;;28.10;66.20;;;;;;4938321;29;20451;-77
2023/09/10 07:48:56;;;;;;;4.20;3.90;;;28.10;66.00;;;;;;4938323;29;20456;-77
2023/09/10 07:51:23;;;;;;;3.60;3.30;;;28.10;66.90;;;;;;4938076;29;20482;-76
2023/09/10 07:53:50;;;;;;;3.70;3.40;;;28.10;67.50;;;;;;4937812;29;21021;-76
2023/09/10 07:56:16;;;;;;;4.13;3.73;;;28.40;66.50;;;;;;4938120;29;20875;-76
2023/09/10 07:58:43;;;;;;;3.80;3.40;;;28.40;65.80;;;;;;4938085;29;20457;-76
2023/09/10 08:01:11;;;;;;;3.90;3.37;;;28.30;66.30;;;;;;4937763;29;20480;-76
2023/09/10 08:03:41;;;;;;;3.97;3.60;;;28.50;67.30;;;;;;4938638;29;20471;-77
2023/09/10 08:06:07;;;;;;;4.00;3.70;;;28.70;66.50;;;;;;4937989;29;20463;-76
2023/09/10 08:08:34;;;;;;;3.90;3.60;;;28.80;65.40;;;;;;4937930;29;20456;-76
2023/09/10 08:11:02;;;;;;;4.53;3.57;;;28.80;66.00;;;;;;4937849;29;20470;-76
2023/09/10 08:13:28;;;;;;;4.50;3.07;;;28.80;65.90;;;;;;4938639;29;20455;-76
2023/09/10 08:15:55;;;;;;;3.43;3.13;;;28.80;65.90;;;;;;4937718;29;20546;-76
2023/09/10 08:18:23;;;;;;;3.93;3.50;;;28.90;65.60;;;;;;4937832;29;20448;-75
2023/09/10 08:20:50;;;;;;;3.30;3.00;;;29.10;64.70;;;;;;4937482;29;20985;-75
2023/09/10 08:23:16;;;;;;;3.77;3.40;;;29.20;64.40;;;;;;4937769;29;20475;-76
2023/09/10 08:25:43;;;;;;;5.63;3.57;;;29.00;64.40;;;;;;4937621;29;20451;-76
2023/09/10 08:28:10;;;;;;;3.70;3.27;;;29.00;64.80;;;;;;4937619;29;20548;-77
2023/09/10 08:30:37;;;;;;;4.03;3.70;;;29.10;64.80;;;;;;4937469;29;20444;-76
2023/09/10 08:33:04;;;;;;;3.10;2.87;;;28.90;63.80;;;;;;4937463;29;20452;-76
2023/09/10 08:35:46;;;;;;;6.30;3.67;;;28.90;63.80;;;;;;4936950;29;20562;-76
2023/09/10 08:38:13;;;;;;;6.40;3.43;;;29.30;64.00;;;;;;4938248;29;20428;-76
2023/09/10 08:40:50;;;;;;;3.80;3.40;;;29.70;62.50;;;;;;4936957;29;20963;-76
2023/09/10 08:43:22;;;;;;;3.73;3.07;;;29.70;62.60;;;;;;4937317;29;20892;-76
2023/09/10 08:45:52;;;;;;;4.77;3.57;;;29.50;62.90;;;;;;4936853;29;20428;-76
2023/09/10 08:48:20;;;;;;;5.10;3.30;;;29.50;60.80;;;;;;4936836;29;20487;-76
2023/09/10 08:50:49;;;;;;;3.57;3.27;;;29.70;62.50;;;;;;4937058;29;20476;-77
2023/09/10 08:53:18;;;;;;;3.27;2.80;;;29.90;60.90;;;;;;4937140;29;20451;-76
2023/09/10 08:55:46;;;;;;;3.70;2.97;;;30.20;59.30;;;;;;4937054;29;20480;-77
2023/09/10 08:58:15;;;;;;;3.10;2.77;;;30.50;57.30;;;;;;4937088;29;20451;-76
2023/09/10 09:00:42;;;;;;;3.83;2.77;;;30.80;55.90;;;;;;4936582;29;22217;-75
2023/09/10 09:03:10;;;;;;;3.77;2.63;;;30.80;55.60;;;;;;4937034;29;20537;-75
2023/09/10 09:05:38;;;;;;;3.20;2.23;;;30.40;56.20;;;;;;4936497;29;20444;-75
2023/09/10 09:08:15;;;;;;;4.10;2.30;;;30.30;58.70;;;;;;4936891;29;20452;-76
2023/09/10 09:10:44;;;;;;;3.23;2.70;;;30.30;56.10;;;;;;4936767;29;20495;-75
2023/09/10 09:13:12;;;;;;;3.00;2.70;;;30.50;56.30;;;;;;4936812;29;20456;-75
2023/09/10 09:15:41;;;;;;;4.17;2.43;;;30.40;57.50;;;;;;4936345;29;20483;-77
2023/09/10 09:18:09;;;;;;;3.17;2.70;;;30.40;57.00;;;;;;4936613;29;20581;-76
2023/09/10 09:20:39;;;;;;;4.30;2.93;;;30.10;57.60;;;;;;4936898;29;20511;-76
2023/09/10 09:23:13;;;;;;;3.53;2.60;;;29.60;57.70;;;;;;4936662;29;20450;-76
2023/09/10 09:25:40;;;;;;;5.70;2.80;;;29.40;60.30;;;;;;4936683;29;20434;-76
2023/09/10 09:28:09;;;;;;;3.80;2.63;;;29.30;60.90;;;;;;4936680;29;20471;-76
2023/09/10 09:30:36;;;;;;;3.20;2.90;;;29.30;60.10;;;;;;4936449;29;20447;-76
2023/09/10 09:33:02;;;;;;;2.67;2.47;;;29.30;59.90;;;;;;4936503;29;20976;-76
2023/09/10 09:35:29;;;;;;;3.60;2.80;;;29.20;61.00;;;;;;4936211;29;20488;-76
2023/09/10 09:37:56;;;;;;;3.50;3.20;;;29.10;60.20;;;;;;4936221;29;20456;-76
2023/09/10 09:40:24;;;;;;;4.50;3.20;;;29.00;61.50;;;;;;4936013;29;20459;-75
2023/09/10 09:42:53;;;;;;;3.87;3.07;;;29.00;62.00;;;;;;4936188;29;20458;-76
2023/09/10 09:45:21;;;;;;;3.67;3.37;;;29.10;63.30;;;;;;4936127;29;20459;-76
2023/09/10 09:47:48;;;;;;;3.30;2.60;;;29.00;61.80;;;;;;4936079;29;20456;-75
2023/09/10 09:50:15;;;;;;;4.57;3.60;;;28.80;61.80;;;;;;4935737;29;20448;-76
2023/09/10 09:52:42;;;;;;;4.00;3.53;;;28.70;63.40;;;;;;4935615;29;20894;-76
2023/09/10 09:55:09;;;;;;;5.23;3.20;;;28.80;63.20;;;;;;4935891;29;20491;-76
2023/09/10 09:57:37;;;;;;;3.87;3.30;;;29.00;63.30;;;;;;4935859;29;20464;-76
2023/09/10 10:00:08;;;;;;;5.20;3.50;;;29.00;61.80;;;;;;4935635;29;20456;-75
2023/09/10 10:02:35;;;;;;;3.90;3.53;;;29.10;62.50;;;;;;4935522;29;20927;-75
2023/09/10 10:05:02;;;;;;;3.50;3.20;;;28.90;62.70;;;;;;4935770;29;20798;-76
2023/09/10 10:07:29;;;;;;;3.43;3.13;;;28.70;63.00;;;;;;4935845;29;20463;-76
2023/09/10 10:09:56;;;;;;;3.40;3.10;;;28.90;64.00;;;;;;4935896;29;20455;-76
2023/09/10 10:12:23;;;;;;;3.40;3.10;;;29.10;62.10;;;;;;4935728;29;20479;-76
2023/09/10 10:14:51;;;;;;;2.90;2.70;;;29.30;63.50;;;;;;4935739;29;20522;-76
2023/09/10 10:17:20;;;;;;;3.40;2.90;;;29.20;61.00;;;;;;4945534;23;20539;-78
2023/09/10 10:19:48;;;;;;;4.77;3.10;;;29.20;60.50;;;;;;4919149;29;20444;-79
2023/09/10 10:22:16;;;;;;;5.10;3.40;;;29.30;61.10;;;;;;4919530;29;20437;-78
2023/09/10 10:24:43;;;;;;;3.80;3.50;;;29.40;61.60;;;;;;4919348;29;20443;-78
2023/09/10 10:27:10;;;;;;;3.40;3.10;;;29.40;61.60;;;;;;4918916;29;20775;-78
2023/09/10 10:29:38;;;;;;;4.13;3.50;;;29.40;61.90;;;;;;4918597;29;20449;-78
2023/09/10 10:32:12;;;;;;;3.73;3.43;;;29.40;60.80;;;;;;4918153;29;20845;-78
2023/09/10 10:34:48;;;;;;;4.17;3.20;;;29.70;60.50;;;;;;4918214;29;20520;-78
2023/09/10 10:37:19;;;;;;;3.50;3.20;;;29.70;59.60;;;;;;4918148;29;20516;-78
2023/09/10 10:39:53;;;;;;;3.30;2.50;;;29.80;59.90;;;;;;4917868;29;20492;-78
2023/09/10 10:42:30;;;;;;;3.53;2.93;;;29.80;59.00;;;;;;4918535;29;20440;-76
2023/09/10 10:45:01;;;;;;;3.33;3.03;;;29.80;60.80;;;;;;4918834;29;20432;-78
2023/09/10 10:47:31;;;;;;;3.97;3.40;;;29.70;59.00;;;;;;4918437;29;20468;-78
2023/09/10 10:49:59;;;;;;;5.40;3.13;;;29.80;61.60;;;;;;4917370;29;20939;-78
2023/09/10 10:52:30;;;;;;;3.83;3.30;;;29.80;60.00;;;;;;4917547;29;20456;-78
2023/09/10 10:54:58;;;;;;;3.73;3.30;;;29.70;59.60;;;;;;4917639;29;20476;-78
2023/09/10 10:57:26;;;;;;;3.50;3.20;;;29.60;60.30;;;;;;4916566;29;20469;-78
2023/09/10 10:59:53;;;;;;;3.23;2.93;;;29.70;59.40;;;;;;4916814;29;20448;-78
2023/09/10 11:02:22;;;;;;;3.63;3.30;;;29.90;58.50;;;;;;4916830;29;20451;-78
2023/09/10 11:05:03;;;;;;;3.43;2.63;;;30.10;58.10;;;;;;4917115;29;20471;-78
2023/09/10 11:07:30;;;;;;;3.07;2.70;;;30.30;58.10;;;;;;4917034;29;20472;-78
2023/09/10 11:09:58;;;;;;;5.80;2.90;;;30.60;57.70;;;;;;4917661;29;20459;-78
2023/09/10 11:12:25;;;;;;;4.20;3.33;;;31.00;56.40;;;;;;4920231;29;20444;-78
2023/09/10 11:15:10;;;;;;;3.10;2.77;;;31.30;55.40;;;;;;4920457;29;20605;-78
2023/09/10 11:17:36;;;;;;;4.37;3.33;;;31.40;56.10;;;;;;4919763;29;20468;-78
2023/09/10 11:20:06;;;;;;;3.37;3.07;;;31.50;55.80;;;;;;4919578;29;20872;-77
2023/09/10 11:23:11;;;;;;;3.20;2.90;;;31.70;55.90;;;;;;4919804;29;20453;-78
2023/09/10 11:25:41;;;;;;;4.47;3.50;;;31.70;55.50;;;;;;4919350;29;20468;-77
2023/09/10 11:28:37;;;;;;;4.70;3.33;;;31.40;54.00;;;;;;4919724;29;20448;-77
2023/09/10 11:31:04;;;;;;;3.00;2.70;;;31.70;54.40;;;;;;4917304;29;20491;-78
2023/09/10 11:33:33;;;;;;;3.70;2.90;;;32.20;54.80;;;;;;4919690;29;20444;-78
2023/09/10 11:36:03;;;;;;;4.17;3.77;;;32.40;54.80;;;;;;4919793;29;20496;-78
2023/09/10 11:38:33;;;;;;;3.43;3.13;;;32.50;54.50;;;;;;4919584;29;20448;-78
2023/09/10 11:41:00;;;;;;;3.20;2.90;;;32.90;53.20;;;;;;4919908;29;20425;-78
2023/09/10 11:43:29;;;;;;;5.17;2.83;;;33.00;52.30;;;;;;4919867;29;20452;-79
2023/09/10 11:45:56;;;;;;;3.17;2.87;;;33.10;51.40;;;;;;4919716;29;20990;-78
2023/09/10 11:48:23;;;;;;;3.57;3.27;;;33.30;52.00;;;;;;4919632;29;20448;-79
2023/09/10 11:50:51;;;;;;;4.90;2.90;;;33.60;51.60;;;;;;4919699;29;20449;-78
2023/09/10 11:53:20;;;;;;;2.93;2.60;;;33.70;50.20;;;;;;4919762;29;20463;-78
2023/09/10 11:55:48;;;;;;;3.40;2.97;;;33.80;51.20;;;;;;4919649;29;20488;-78
2023/09/10 11:58:15;;;;;;;2.97;2.77;;;33.80;50.10;;;;;;4919596;29;20449;-78
2023/09/10 12:00:44;;;;;;;3.47;3.00;;;34.00;50.00;;;;;;4919359;29;20451;-79
2023/09/10 12:03:11;;;;;;;2.93;2.67;;;34.10;49.30;;;;;;4919835;29;20463;-79
2023/09/10 12:05:38;;;;;;;3.80;2.70;;;33.90;48.50;;;;;;4919131;29;20550;-76
2023/09/10 12:08:05;;;;;;;3.40;3.00;;;33.60;50.00;;;;;;4918793;29;20453;-79
2023/09/10 12:10:34;;;;;;;3.70;3.20;;;33.80;51.20;;;;;;4922184;29;20448;-79
2023/09/10 12:13:03;;;;;;;3.17;2.97;;;33.80;50.00;;;;;;4926661;29;20460;-77
2023/09/10 12:15:33;;;;;;;3.40;3.10;;;33.80;50.90;;;;;;4925776;29;20491;-78
2023/09/10 12:18:04;;;;;;;3.33;3.03;;;33.80;49.50;;;;;;4924959;29;20907;-77
2023/09/10 12:20:32;;;;;;;4.03;2.87;;;33.50;50.90;;;;;;4918504;29;20437;-75
2023/09/10 12:23:00;;;;;;;3.20;2.90;;;33.60;50.40;;;;;;4918103;29;20504;-75
2023/09/10 12:25:27;;;;;;;3.30;3.00;;;33.20;51.50;;;;;;4918721;29;20465;-73
2023/09/10 12:27:55;;;;;;;5.03;3.80;;;33.00;51.90;;;;;;4918644;29;20452;-75
2023/09/10 12:30:22;;;;;;;4.73;3.43;;;32.80;52.30;;;;;;4918570;29;20448;-71
2023/09/10 12:32:49;;;;;;;4.33;3.03;;;32.70;52.20;;;;;;4918660;29;20894;-73
2023/09/10 12:35:16;;;;;;;4.47;3.40;;;32.90;51.50;;;;;;4918386;29;20480;-72
2023/09/10 12:37:51;;;;;;;3.17;2.87;;;32.80;51.80;;;;;;4918485;29;20464;-74
2023/09/10 12:40:18;;;;;;;4.90;3.57;;;32.70;52.10;;;;;;4918503;29;20494;-73
2023/09/10 12:42:45;;;;;;;4.17;3.20;;;33.10;52.50;;;;;;4918146;29;20961;-75
2023/09/10 12:45:13;;;;;;;4.07;2.70;;;33.30;51.90;;;;;;4918320;29;20499;-74
2023/09/10 12:47:40;;;;;;;3.07;2.73;;;33.60;51.00;;;;;;4918288;29;20831;-72
2023/09/10 12:50:08;;;;;;;3.40;3.10;;;34.00;50.50;;;;;;4918258;29;20457;-72
2023/09/10 12:52:35;;;;;;;3.57;2.97;;;34.20;50.80;;;;;;4918220;29;20445;-73
2023/09/10 12:55:02;;;;;;;5.30;3.00;;;34.40;50.20;;;;;;4918093;29;20455;-73
2023/09/10 12:57:31;;;;;;;3.90;3.30;;;34.70;49.70;;;;;;4918081;29;20468;-74
2023/09/10 12:59:58;;;;;;;4.10;3.30;;;34.60;49.40;;;;;;4918130;29;20523;-73
2023/09/10 13:02:30;;;;;;;3.50;3.20;;;34.50;49.50;;;;;;4918021;29;20484;-73
2023/09/10 13:04:57;;;;;;;3.30;3.00;;;34.60;48.10;;;;;;4918161;29;20432;-74
2023/09/10 13:07:24;;;;;;;3.17;2.87;;;34.50;49.30;;;;;;4917546;29;20879;-73
2023/09/10 13:09:51;;;;;;;3.67;3.17;;;34.40;49.70;;;;;;4917873;29;20445;-74
2023/09/10 13:12:18;;;;;;;2.47;2.27;;;34.00;49.20;;;;;;4917804;29;20882;-73
2023/09/10 13:14:45;;;;;;;3.00;2.80;;;34.00;50.10;;;;;;4917803;29;20448;-74
2023/09/10 13:17:12;;;;;;;3.70;3.20;;;34.20;50.80;;;;;;4917240;29;20579;-72
2023/09/10 13:19:40;;;;;;;3.93;3.57;;;34.00;49.30;;;;;;4917457;29;20821;-72
2023/09/10 13:22:08;;;;;;;3.43;3.13;;;34.40;49.80;;;;;;4917803;29;20473;-72
2023/09/10 13:24:34;;;;;;;3.03;2.70;;;34.60;49.10;;;;;;4917362;29;20793;-73
2023/09/10 13:27:01;;;;;;;3.50;3.20;;;34.70;48.90;;;;;;4917552;29;20496;-71
2023/09/10 13:29:28;;;;;;;3.50;3.20;;;34.90;48.70;;;;;;4917396;29;20495;-72
2023/09/10 13:31:55;;;;;;;3.67;3.30;;;34.90;48.40;;;;;;4917358;29;20452;-71
2023/09/10 13:34:21;;;;;;;3.80;3.40;;;34.90;48.50;;;;;;4917060;29;20997;-72
2023/09/10 13:36:49;;;;;;;3.80;3.33;;;35.00;48.10;;;;;;4917032;29;20996;-72
2023/09/10 13:39:16;;;;;;;2.93;2.63;;;35.20;48.10;;;;;;4917063;29;20452;-71
2023/09/10 13:41:42;;;;;;;3.57;3.27;;;35.30;47.80;;;;;;4917392;29;20876;-71
2023/09/10 13:44:10;;;;;;;3.60;3.30;;;35.30;47.20;;;;;;4917365;29;20456;-72
2023/09/10 13:46:37;;;;;;;4.23;3.43;;;35.10;47.80;;;;;;4917310;29;20479;-73
2023/09/10 13:49:05;;;;;;;3.47;2.90;;;35.00;47.80;;;;;;4917331;29;20448;-72
2023/09/10 13:51:33;;;;;;;2.70;2.50;;;35.20;48.90;;;;;;4917253;29;20874;-73
2023/09/10 13:54:01;;;;;;;3.47;2.83;;;35.40;46.90;;;;;;4917238;29;20472;-73
2023/09/10 13:56:27;;;;;;;3.30;3.00;;;35.50;46.70;;;;;;4917057;29;20488;-73
2023/09/10 13:58:54;;;;;;;3.50;3.17;;;35.50;46.90;;;;;;4917180;29;20460;-73
2023/09/10 14:01:20;;;;;;;2.93;2.57;;;35.60;46.60;;;;;;4917168;29;20456;-73
2023/09/10 14:03:47;;;;;;;3.63;2.93;;;35.60;46.40;;;;;;4917135;29;20459;-74
2023/09/10 14:06:14;;;;;;;3.30;2.97;;;35.00;46.40;;;;;;4916986;29;20472;-73
2023/09/10 14:08:40;;;;;;;2.90;2.30;;;34.80;46.50;;;;;;4917044;29;20448;-73
2023/09/10 14:11:08;;;;;;;3.57;2.80;;;34.80;46.50;;;;;;4916707;29;20448;-73
2023/09/10 14:13:35;;;;;;;3.50;2.70;;;34.70;46.50;;;;;;4916679;29;20459;-73
2023/09/10 14:16:02;;;;;;;3.13;2.43;;;34.90;46.20;;;;;;4916692;29;20502;-73
2023/09/10 14:18:29;;;;;;;3.80;2.97;;;35.10;47.40;;;;;;4917013;29;20440;-73
2023/09/10 14:20:55;;;;;;;3.60;3.30;;;35.60;45.90;;;;;;4916982;29;20448;-73
2023/09/10 14:23:22;;;;;;;2.70;2.50;;;36.10;45.30;;;;;;4916970;29;20448;-73
2023/09/10 14:25:49;;;;;;;3.20;2.83;;;36.80;44.00;;;;;;4916840;29;20520;-73
2023/09/10 14:28:17;;;;;;;2.50;2.30;;;37.60;42.10;;;;;;4916935;29;20460;-73
2023/09/10 14:30:44;;;;;;;3.00;2.70;;;38.30;41.60;;;;;;4916899;29;20444;-73
2023/09/10 14:33:10;;;;;;;2.20;2.00;;;39.30;40.30;;;;;;4916554;29;20868;-73
2023/09/10 14:35:37;;;;;;;2.75;2.30;;;40.40;38.40;;;;;;4916378;29;20721;-74
2023/09/10 14:38:04;;;;;;;2.97;2.67;;;41.20;38.20;;;;;;4916837;29;20207;-73
2023/09/10 14:40:31;;;;;;;2.80;2.60;;;42.70;36.60;;;;;;4916491;29;20212;-74
2023/09/10 14:42:58;;;;;;;2.67;2.47;;;43.90;34.80;;;;;;4916475;29;20682;-74
2023/09/10 14:45:26;;;;;;;2.72;2.13;;;44.70;33.30;;;;;;4918385;29;20585;-75
2023/09/10 14:47:52;;;;;;;2.65;2.38;;;45.00;33.30;;;;;;4920132;29;20701;-73
2023/09/10 14:50:19;;;;;;;2.80;2.60;;;44.90;33.30;;;;;;4920406;29;20263;-74
2023/09/10 14:52:46;;;;;;;2.60;2.40;;;45.40;32.90;;;;;;4920026;29;20586;-74
2023/09/10 14:55:13;;;;;;;3.00;2.80;;;45.60;32.70;;;;;;4919910;29;20205;-75
2023/09/10 14:57:40;;;;;;;2.70;2.38;;;46.10;31.90;;;;;;4920197;29;20232;-73
2023/09/10 15:00:08;;;;;;;2.50;2.30;;;45.70;32.40;;;;;;4920295;29;20544;-74
2023/09/10 15:02:36;;;;;;;2.40;2.17;;;46.00;31.80;;;;;;4920219;29;20267;-74
2023/09/10 15:05:03;;;;;;;3.33;2.15;;;46.50;31.80;;;;;;4920089;29;20207;-73
2023/09/10 15:07:30;;;;;;;2.83;2.35;;;46.30;31.70;;;;;;4919992;29;20291;-74
2023/09/10 15:09:56;;;;;;;2.92;2.60;;;45.70;31.50;;;;;;4920104;29;20212;-74
2023/09/10 15:12:23;;;;;;;2.40;2.20;;;45.80;31.70;;;;;;4919983;29;20224;-74
2023/09/10 15:14:49;;;;;;;2.78;2.58;;;46.10;31.80;;;;;;4920002;29;20212;-73
2023/09/10 15:17:16;;;;;;;2.90;2.60;;;46.60;31.30;;;;;;4919566;29;20235;-74
2023/09/10 15:19:44;;;;;;;3.08;2.47;;;46.80;31.10;;;;;;4919866;29;20263;-75
2023/09/10 15:22:11;;;;;;;2.92;2.65;;;47.00;30.80;;;;;;4919591;29;20208;-73
2023/09/10 15:24:38;;;;;;;2.50;2.30;;;46.30;31.60;;;;;;4920489;29;20239;-73
2023/09/10 15:27:05;;;;;;;2.92;2.33;;;45.90;32.60;;;;;;4919704;29;20224;-73
2023/09/10 15:29:32;;;;;;;3.28;2.35;;;44.70;33.00;;;;;;4919736;29;20213;-73
2023/09/10 15:31:59;;;;;;;2.78;2.40;;;43.00;34.60;;;;;;4919393;29;20220;-73
2023/09/10 15:34:26;;;;;;;4.13;2.33;;;41.20;36.20;;;;;;4919563;29;20267;-73
2023/09/10 15:36:53;;;;;;;3.57;2.50;;;39.10;39.10;;;;;;4919416;29;20231;-72
2023/09/10 15:39:20;;;;;;;2.67;2.47;;;37.50;40.40;;;;;;4919489;29;20448;-72
2023/09/10 15:41:48;;;;;;;2.73;2.53;;;36.60;41.90;;;;;;4919428;29;20499;-72
2023/09/10 15:44:15;;;;;;;2.63;2.43;;;36.10;42.60;;;;;;4919127;29;20853;-72
2023/09/10 15:46:42;;;;;;;4.97;2.87;;;35.50;43.90;;;;;;4919347;29;20465;-72
2023/09/10 15:49:09;;;;;;;3.37;2.60;;;34.90;45.10;;;;;;4919020;29;20870;-72
2023/09/10 15:51:35;;;;;;;2.93;2.60;;;34.40;45.70;;;;;;4919271;29;20448;-72
2023/09/10 15:54:04;;;;;;;2.63;2.43;;;34.00;46.10;;;;;;4919192;29;20512;-72
2023/09/10 15:56:30;;;;;;;3.00;2.70;;;33.70;46.80;;;;;;4918775;29;20852;-72
2023/09/10 15:58:57;;;;;;;3.00;2.47;;;33.40;46.90;;;;;;4919145;29;20826;-72
2023/09/10 16:01:24;;;;;;;3.87;3.47;;;33.10;48.10;;;;;;4919112;29;20476;-71
2023/09/10 16:03:50;;;;;;;3.17;2.60;;;32.70;48.30;;;;;;4919095;29;20449;-72
2023/09/10 16:06:17;;;;;;;5.13;2.70;;;32.40;48.80;;;;;;4918662;29;20893;-72
2023/09/10 16:08:44;;;;;;;3.50;3.00;;;32.20;49.00;;;;;;4919009;29;20449;-72
2023/09/10 16:11:13;;;;;;;2.60;2.37;;;32.10;49.10;;;;;;4918987;29;20456;-71
2023/09/10 16:13:40;;;;;;;4.83;2.67;;;32.20;49.60;;;;;;4918897;29;20444;-72
2023/09/10 16:18:42;;;;;;;3.77;2.63;;;31.60;50.00;;;;;;4919715;23;20504;-77
2023/09/10 16:21:08;;;;;;;2.97;2.67;;;31.30;50.80;;;;;;4918853;29;20448;-76
2023/09/10 16:23:36;;;;;;;3.20;2.87;;;31.40;50.90;;;;;;4918800;29;20448;-76
2023/09/10 16:26:04;;;;;;;4.03;3.70;;;31.40;50.90;;;;;;4918697;29;20445;-76
2023/09/10 16:28:32;;;;;;;2.73;2.43;;;31.40;51.00;;;;;;4900078;29;20454;-78
2023/09/10 16:30:58;;;;;;;2.97;2.67;;;31.40;50.80;;;;;;4899468;29;20944;-77
2023/09/10 16:33:25;;;;;;;3.07;2.40;;;31.30;51.60;;;;;;4899385;29;20936;-77
2023/09/10 16:35:52;;;;;;;3.20;2.90;;;31.30;51.70;;;;;;4899659;29;20445;-76
2023/09/10 16:38:19;;;;;;;4.10;3.30;;;31.40;51.70;;;;;;4899636;29;20492;-77
2023/09/10 16:40:45;;;;;;;2.90;2.40;;;31.40;51.70;;;;;;4899233;29;20971;-77
2023/09/10 16:43:12;;;;;;;3.53;3.13;;;31.40;51.90;;;;;;4899290;29;20450;-77
2023/09/10 16:45:40;;;;;;;4.47;2.50;;;31.50;51.50;;;;;;4899441;29;20445;-76
2023/09/10 16:48:07;;;;;;;3.33;2.60;;;31.40;51.70;;;;;;4899397;29;20469;-76
2023/09/10 16:50:33;;;;;;;3.13;2.73;;;31.40;52.20;;;;;;4899375;29;20461;-77
2023/09/10 16:53:00;;;;;;;3.57;3.10;;;31.40;52.10;;;;;;4899161;29;20450;-77